aviador You're here:

KBHB Decoded Metar

BAR HARBOR in ME, USA
Report Time2018-05-23 15:56:00
UTC Time2018-05-23 16:33:04
Flight Rules vfr VFR
WindVRB at 06 kt
Visibility9999 m
Phenomena:N/A
Clouds:Broken 037 Hf
Expected CloudBase > 3,200 ft AGL from Temp-Dew spread
Ceiling3,700 ft
Temp20°C (ISA +5)
Dew Point12°C (60% RH)
AAT18.5°C
QNH1009 hPa
Density Alt1,014 ft
Elevation85 ft
Report Wrong Elevation
Raw Report
KBHB 231556Z AUTO VRB06KT 10SM BKN037 20/12 A2980 RMK AO2 SLP096
T02000117 $=

Extra information for KBHB:More info

Metar Taf Metar & Taf Last 4 Metars F.Rules Stats Wind Profile Meteogram Temp Stats Airport Information Weather charts Add Link Nearby VenuesMetar ALERT Operation Metar Decoded Social comments

AIRNAV info for KBHB